Time;durP1;ratioP1;P1;durP2;ratioP2;P2;SDS_P1;SDS_P2;PMS_P1;PMS_P2;Temp;Humidity;BMP_temperature;BMP_pressure;BME280_temperature;BME280_humidity;BME280_pressure;Samples;Min_cycle;Max_cycle;Signal;HPM_P1;HPM_P2
2022/08/28 00:02:17;;;;;;;;;;;;;;;26.39;64.63;100552.22;5037036;28;657;-36
2022/08/28 00:05:04;;;;;;;;;;;;;;;26.42;64.56;100546.59;5036761;28;1424;-36
2022/08/28 00:07:49;;;;;;;;;;;;;;;26.47;64.23;100549.72;5037163;28;1021;-35
2022/08/28 00:10:35;;;;;;;;;;;;;;;26.54;64.45;100544.63;5036737;28;1370;-36
2022/08/28 00:13:21;;;;;;;;;;;;;;;26.51;64.22;100543.09;5036745;28;968;-36
2022/08/28 00:16:06;;;;;;;;;;;;;;;26.47;64.51;100536.38;5036635;28;1898;-36
2022/08/28 00:18:52;;;;;;;;;;;;;;;26.51;64.25;100543.09;5036778;28;1235;-35
2022/08/28 00:21:37;;;;;;;;;;;;;;;26.54;64.36;100541.94;5036920;28;668;-36
2022/08/28 00:24:22;;;;;;;;;;;;;;;26.36;64.78;100540.97;5036673;28;1318;-36
2022/08/28 00:30:12;;;;;;;;;;;;;;;26.32;64.68;100547.63;5036302;28;1261;-35
2022/08/28 00:32:59;;;;;;;;;;;;;;;26.33;65.03;100550.13;5036482;28;951;-35
2022/08/28 00:35:46;;;;;;;;;;;;;;;26.29;65.01;100548.75;5036459;28;1902;-36
2022/08/28 00:38:31;;;;;;;;;;;;;;;26.31;65.07;100546.75;5036703;28;1345;-36
2022/08/28 00:41:17;;;;;;;;;;;;;;;26.30;64.80;100547.75;5036373;28;629;-36
2022/08/28 00:44:12;;;;;;;;;;;;;;;26.31;64.96;100552.09;5036238;28;1462;-37
2022/08/28 00:46:58;;;;;;;;;;;;;;;26.27;64.96;100563.19;5036327;28;708;-36
2022/08/28 00:49:51;;;;;;;;;;;;;;;26.25;65.21;100570.50;5036032;28;1250;-37
2022/08/28 00:52:37;;;;;;;;;;;;;;;26.21;65.31;100569.94;5036512;28;695;-37
2022/08/28 00:55:24;;;;;;;;;;;;;;;26.19;64.99;100571.91;5036104;28;1984;-36
2022/08/28 00:58:10;;;;;;;;;;;;;;;26.15;64.84;100570.50;5036178;28;1061;-36
2022/08/28 01:00:55;;;;;;;;;;;;;;;26.17;65.06;100581.91;5035979;28;652;-36
2022/08/28 01:03:41;;;;;;;;;;;;;;;26.07;65.57;100575.66;5035040;28;1215;-37
2022/08/28 01:06:26;;;;;;;;;;;;;;;26.03;65.57;100582.25;5035400;28;640;-35
2022/08/28 01:09:11;;;;;;;;;;;;;;;25.87;66.18;100582.78;5035065;28;1235;-36
2022/08/28 01:12:01;;;;;;;;;;;;;;;25.82;66.17;100584.19;5035877;28;680;-35
2022/08/28 01:14:49;;;;;;;;;;;;;;;25.81;66.37;100593.16;5036184;28;1294;-36
2022/08/28 01:17:34;;;;;;;;;;;;;;;25.83;65.96;100588.53;5035614;28;629;-37
2022/08/28 01:20:26;;;;;;;;;;;;;;;25.92;65.78;100590.38;5035163;28;1213;-36
2022/08/28 01:23:22;;;;;;;;;;;;;;;25.88;66.21;100588.97;5035582;28;1142;-35
2022/08/28 01:26:07;;;;;;;;;;;;;;;26.02;65.81;100596.59;5035676;28;684;-36
2022/08/28 01:28:57;;;;;;;;;;;;;;;25.90;65.89;100603.84;5035482;28;1225;-35
2022/08/28 01:31:42;;;;;;;;;;;;;;;25.65;67.31;100604.34;5035411;28;625;-36
2022/08/28 01:34:28;;;;;;;;;;;;;;;25.54;67.31;100607.94;5035654;28;1303;-35
2022/08/28 01:37:14;;;;;;;;;;;;;;;25.51;67.59;100596.69;5035316;28;1985;-36
2022/08/28 01:40:00;;;;;;;;;;;;;;;25.46;67.37;100599.75;5035677;28;1311;-35
2022/08/28 01:42:45;;;;;;;;;;;;;;;25.46;66.87;100593.56;5035307;28;1041;-35
2022/08/28 01:45:31;;;;;;;;;;;;;;;25.49;66.68;100601.34;5035185;28;1505;-36
2022/08/28 01:48:16;;;;;;;;;;;;;;;25.45;66.75;100597.22;5035138;28;1046;-37
2022/08/28 01:51:02;;;;;;;;;;;;;;;25.44;66.48;100599.03;5035165;28;636;-38
2022/08/28 01:53:47;;;;;;;;;;;;;;;25.52;66.32;100593.91;5035133;28;1219;-35
2022/08/28 01:56:32;;;;;;;;;;;;;;;25.54;66.47;100597.28;5034838;28;1965;-35
2022/08/28 01:59:17;;;;;;;;;;;;;;;25.61;65.93;100596.75;5034007;28;1239;-36
2022/08/28 02:02:03;;;;;;;;;;;;;;;25.62;66.32;100593.97;5034706;28;614;-35
2022/08/28 02:04:48;;;;;;;;;;;;;;;25.62;66.12;100583.28;5035284;28;1221;-35
2022/08/28 02:07:34;;;;;;;;;;;;;;;25.59;66.20;100580.03;5034017;28;621;-35
2022/08/28 02:10:23;;;;;;;;;;;;;;;25.60;66.17;100584.38;5034614;28;1260;-35
2022/08/28 02:13:08;;;;;;;;;;;;;;;25.63;66.20;100579.63;5034679;28;1157;-34
2022/08/28 02:15:53;;;;;;;;;;;;;;;25.62;66.23;100582.44;5034594;28;1898;-35
2022/08/28 02:18:39;;;;;;;;;;;;;;;25.58;66.43;100576.53;5033760;28;1254;-36
2022/08/28 02:21:24;;;;;;;;;;;;;;;25.56;66.76;100573.16;5034833;28;649;-37
2022/08/28 02:24:09;;;;;;;;;;;;;;;25.57;66.80;100572.16;5034683;28;1327;-37
2022/08/28 02:26:54;;;;;;;;;;;;;;;25.62;66.37;100569.94;5033558;28;625;-36
2022/08/28 02:29:39;;;;;;;;;;;;;;;25.61;66.38;100565.59;5034491;28;1243;-36
2022/08/28 02:32:25;;;;;;;;;;;;;;;25.56;66.85;100556.31;5034732;28;688;-35
2022/08/28 02:35:11;;;;;;;;;;;;;;;25.61;66.64;100559.41;5034299;28;1284;-36
2022/08/28 02:37:57;;;;;;;;;;;;;;;25.62;66.97;100561.09;5034279;28;958;-35
2022/08/28 02:40:44;;;;;;;;;;;;;;;25.62;66.69;100561.09;5033125;28;1353;-36
2022/08/28 02:43:30;;;;;;;;;;;;;;;25.64;66.58;100549.31;5034156;28;1665;-36
2022/08/28 02:46:15;;;;;;;;;;;;;;;25.58;66.99;100565.84;5034254;28;649;-37
2022/08/28 02:49:00;;;;;;;;;;;;;;;25.59;67.15;100561.38;5034267;28;1249;-36
2022/08/28 02:51:46;;;;;;;;;;;;;;;25.62;67.05;100566.44;5033973;28;666;-35
2022/08/28 02:54:31;;;;;;;;;;;;;;;25.52;67.54;100571.72;5034038;28;1252;-35
2022/08/28 02:57:17;;;;;;;;;;;;;;;25.51;67.48;100562.88;5034027;28;1906;-36
2022/08/28 03:00:09;;;;;;;;;;;;;;;25.49;67.78;100562.19;5034317;28;1280;-36
2022/08/28 03:02:54;;;;;;;;;;;;;;;25.49;67.79;100567.53;5033980;28;1047;-36
2022/08/28 03:05:40;;;;;;;;;;;;;;;25.50;67.83;100569.19;5034247;28;1307;-35
2022/08/28 03:08:26;;;;;;;;;;;;;;;25.48;67.99;100568.50;5033904;28;1243;-35
2022/08/28 03:11:11;;;;;;;;;;;;;;;25.47;67.84;100563.28;5033685;28;664;-35
2022/08/28 03:13:56;;;;;;;;;;;;;;;25.41;68.03;100567.28;5033577;28;1240;-37
2022/08/28 03:16:41;;;;;;;;;;;;;;;25.43;68.11;100557.34;5033610;28;1965;-37
2022/08/28 03:19:26;;;;;;;;;;;;;;;25.38;68.10;100556.91;5034151;28;1329;-36
2022/08/28 03:22:12;;;;;;;;;;;;;;;25.39;67.75;100561.25;5033944;28;632;-36
2022/08/28 03:24:57;;;;;;;;;;;;;;;25.39;67.65;100571.94;5033891;28;1216;-35
2022/08/28 03:27:42;;;;;;;;;;;;;;;25.40;67.89;100560.28;5033283;28;1035;-36
2022/08/28 03:30:30;;;;;;;;;;;;;;;25.39;67.81;100565.75;5033085;28;1273;-36
2022/08/28 03:33:16;;;;;;;;;;;;;;;25.37;67.87;100559.72;5033454;28;1046;-36
2022/08/28 03:36:01;;;;;;;;;;;;;;;25.33;67.91;100555.63;5033313;28;1957;-36
2022/08/28 03:38:50;;;;;;;;;;;;;;;25.34;67.88;100552.84;5033513;28;1238;-36
2022/08/28 03:41:35;;;;;;;;;;;;;;;25.38;68.03;100545.41;5032537;28;624;-36
2022/08/28 03:44:20;;;;;;;;;;;;;;;25.46;67.88;100550.91;5033145;28;1373;-36
2022/08/28 03:47:05;;;;;;;;;;;;;;;25.36;67.92;100553.53;5032982;28;629;-34
2022/08/28 03:49:55;;;;;;;;;;;;;;;25.36;68.20;100552.69;5033596;28;1245;-35
2022/08/28 03:52:40;;;;;;;;;;;;;;;25.32;68.50;100544.09;5032992;28;1056;-35
2022/08/28 03:55:27;;;;;;;;;;;;;;;25.39;68.26;100545.25;5033092;28;1355;-36
2022/08/28 03:58:13;;;;;;;;;;;;;;;25.37;68.31;100549.06;5033456;28;947;-36
2022/08/28 04:01:02;;;;;;;;;;;;;;;25.34;68.31;100541.31;5032972;28;657;-35
2022/08/28 04:03:48;;;;;;;;;;;;;;;25.31;68.35;100547.78;5033177;28;1312;-36
2022/08/28 04:06:33;;;;;;;;;;;;;;;25.28;68.14;100556.03;5033237;28;691;-36
2022/08/28 04:09:20;;;;;;;;;;;;;;;25.37;67.20;100552.56;5033408;28;1315;-35
2022/08/28 04:12:06;;;;;;;;;;;;;;;25.23;66.45;100550.25;5033229;28;594;-35
2022/08/28 04:14:51;;;;;;;;;;;;;;;25.23;66.47;100547.56;5032068;28;1247;-35
2022/08/28 04:17:37;;;;;;;;;;;;;;;25.20;66.45;100555.03;5032874;28;1964;-35
2022/08/28 04:20:22;;;;;;;;;;;;;;;25.12;66.58;100547.69;5033112;28;1245;-34
2022/08/28 04:23:08;;;;;;;;;;;;;;;25.13;66.62;100551.19;5032867;28;1160;-35
2022/08/28 04:25:54;;;;;;;;;;;;;;;25.05;67.03;100556.34;5032825;28;668;-36
2022/08/28 04:28:40;;;;;;;;;;;;;;;25.10;66.63;100551.47;5032587;28;1243;-36
2022/08/28 04:31:27;;;;;;;;;;;;;;;25.08;67.36;100561.41;5032888;28;640;-35
2022/08/28 04:34:15;;;;;;;;;;;;;;;25.07;66.96;100559.72;5033201;28;1272;-36
2022/08/28 04:37:00;;;;;;;;;;;;;;;25.06;67.42;100563.34;5032704;28;1902;-35
2022/08/28 04:39:46;;;;;;;;;;;;;;;25.02;67.79;100568.94;5032955;28;1319;-36
2022/08/28 04:42:31;;;;;;;;;;;;;;;24.99;68.00;100579.00;5035505;28;695;-35
2022/08/28 04:45:17;;;;;;;;;;;;;;;24.96;67.83;100574.81;5036196;28;1473;-36
2022/08/28 04:48:02;;;;;;;;;;;;;;;25.05;67.67;100570.50;5036510;28;1049;-36
2022/08/28 04:50:54;;;;;;;;;;;;;;;24.94;67.69;100573.25;5036308;28;672;-35
2022/08/28 04:53:39;;;;;;;;;;;;;;;24.75;67.41;100570.41;5036217;28;1319;-36
2022/08/28 04:56:25;;;;;;;;;;;;;;;24.72;66.62;100576.00;5034899;28;1963;-35
2022/08/28 04:59:11;;;;;;;;;;;;;;;24.63;66.15;100582.09;5036437;28;1230;-36
2022/08/28 05:01:56;;;;;;;;;;;;;;;24.56;66.16;100583.63;5033988;28;1542;-36
2022/08/28 05:04:41;;;;;;;;;;;;;;;24.60;65.77;100577.03;5016475;28;1313;-35
2022/08/28 05:07:28;;;;;;;;;;;;;;;24.59;65.31;100576.22;5018326;28;700;-36
2022/08/28 05:10:13;;;;;;;;;;;;;;;24.51;65.31;100588.47;5035814;28;1257;-35
2022/08/28 05:12:58;;;;;;;;;;;;;;;24.47;64.93;100580.72;5036108;28;1032;-35
2022/08/28 05:15:45;;;;;;;;;;;;;;;24.52;64.88;100584.84;5035698;28;1289;-35
2022/08/28 05:18:31;;;;;;;;;;;;;;;24.62;64.63;100580.44;5035673;28;1355;-36
2022/08/28 05:21:19;;;;;;;;;;;;;;;24.58;64.61;100587.00;5023173;28;713;-36
2022/08/28 05:24:05;;;;;;;;;;;;;;;24.61;64.56;100584.06;5028795;28;1310;-35
2022/08/28 05:26:51;;;;;;;;;;;;;;;24.64;64.14;100587.31;5015632;28;634;-35
2022/08/28 05:29:36;;;;;;;;;;;;;;;24.67;64.22;100578.22;5015985;28;1233;-35
2022/08/28 05:32:21;;;;;;;;;;;;;;;24.75;64.10;100578.41;5015652;28;688;-36
2022/08/28 05:35:06;;;;;;;;;;;;;;;24.75;63.96;100589.06;5015748;28;1257;-36
2022/08/28 05:37:51;;;;;;;;;;;;;;;24.87;63.82;100591.56;5015409;28;1902;-34
2022/08/28 05:40:42;;;;;;;;;;;;;;;24.96;64.19;100589.94;5015834;28;1312;-36
2022/08/28 05:43:28;;;;;;;;;;;;;;;24.99;64.50;100595.00;5018123;28;1440;-36
2022/08/28 05:46:14;;;;;;;;;;;;;;;25.09;64.02;100601.25;5035087;28;840;-37
2022/08/28 05:48:59;;;;;;;;;;;;;;;25.10;64.00;100591.44;5035398;28;1213;-37
2022/08/28 05:51:45;;;;;;;;;;;;;;;25.09;63.45;100593.25;5035292;28;1110;-36
2022/08/28 05:54:31;;;;;;;;;;;;;;;25.13;63.12;100597.34;5034069;28;1302;-36
2022/08/28 05:57:16;;;;;;;;;;;;;;;25.10;63.20;100599.44;5034863;28;1973;-36
2022/08/28 06:00:02;;;;;;;;;;;;;;;25.04;62.83;100598.13;5035638;28;1224;-37
2022/08/28 06:02:48;;;;;;;;;;;;;;;25.05;62.60;100604.31;5034858;28;1150;-37
2022/08/28 06:05:34;;;;;;;;;;;;;;;25.05;62.46;100602.47;5035156;28;1268;-36
2022/08/28 06:08:21;;;;;;;;;;;;;;;25.07;62.30;100597.88;5034905;28;950;-37
2022/08/28 06:11:07;;;;;;;;;;;;;;;25.12;62.28;100611.66;5034792;28;672;-36
2022/08/28 06:13:53;;;;;;;;;;;;;;;25.18;62.17;100610.25;5035208;28;1310;-36
2022/08/28 06:16:40;;;;;;;;;;;;;;;25.21;62.25;100610.84;5034548;28;1906;-36
2022/08/28 06:19:27;;;;;;;;;;;;;;;25.24;62.22;100607.94;5034872;28;1225;-36
2022/08/28 06:22:13;;;;;;;;;;;;;;;25.26;62.38;100616.63;5034492;28;621;-35
2022/08/28 06:24:59;;;;;;;;;;;;;;;25.33;62.21;100615.13;5034261;28;1624;-33
2022/08/28 06:27:43;;;;;;;;;;;;;;;25.34;62.02;100619.50;5034486;28;1037;-35
2022/08/28 06:30:29;;;;;;;;;;;;;;;25.40;61.84;100623.44;5017548;28;1407;-35
2022/08/28 06:33:19;;;;;;;;;;;;;;;25.40;62.01;100615.44;5034127;28;1038;-35
2022/08/28 06:36:06;;;;;;;;;;;;;;;25.40;62.39;100623.44;5033844;28;621;-34
2022/08/28 06:38:52;;;;;;;;;;;;;;;25.41;62.09;100623.28;5034357;28;1204;-35
2022/08/28 06:41:41;;;;;;;;;;;;;;;25.48;61.97;100612.94;5034213;28;657;-36
2022/08/28 06:44:27;;;;;;;;;;;;;;;25.54;61.96;100607.94;5034125;28;1403;-35
2022/08/28 06:47:14;;;;;;;;;;;;;;;25.54;61.88;100607.94;5034065;28;715;-35
2022/08/28 06:49:59;;;;;;;;;;;;;;;25.61;61.60;100610.94;5034325;28;1306;-36
2022/08/28 06:52:44;;;;;;;;;;;;;;;25.62;61.01;100611.78;5033824;28;1113;-37
2022/08/28 06:55:29;;;;;;;;;;;;;;;25.68;61.03;100616.56;5033531;28;1303;-36
2022/08/28 06:58:17;;;;;;;;;;;;;;;25.72;61.33;100615.31;5022979;28;1901;-36
2022/08/28 07:01:07;;;;;;;;;;;;;;;25.74;61.25;100613.38;5014419;28;673;-36
2022/08/28 07:03:53;;;;;;;;;;;;;;;25.82;59.56;100611.72;5013756;28;1323;-35
2022/08/28 07:06:40;;;;;;;;;;;;;;;25.89;59.56;100612.00;5013477;28;629;-36
2022/08/28 07:09:25;;;;;;;;;;;;;;;25.93;59.48;100619.59;5013750;28;1343;-37
2022/08/28 07:12:14;;;;;;;;;;;;;;;25.95;59.49;100619.47;5013736;28;697;-36
2022/08/28 07:15:02;;;;;;;;;;;;;;;26.08;59.72;100620.06;5014384;28;1304;-36
2022/08/28 07:17:47;;;;;;;;;;;;;;;26.08;59.02;100612.88;5013957;28;1957;-36
2022/08/28 07:20:32;;;;;;;;;;;;;;;26.10;58.93;100615.44;5014163;28;1245;-36
2022/08/28 07:23:18;;;;;;;;;;;;;;;26.19;58.03;100614.63;5013732;28;1101;-40
2022/08/28 07:26:04;;;;;;;;;;;;;;;26.19;56.93;100614.63;5013274;28;754;-36
2022/08/28 07:28:53;;;;;;;;;;;;;;;26.34;56.72;100613.25;5012537;28;1315;-36
2022/08/28 07:31:56;;;;;;;;;;;;;;;26.29;56.30;100620.84;5013485;28;649;-36
2022/08/28 07:34:42;;;;;;;;;;;;;;;26.37;55.79;100617.44;5013883;28;1219;-35
2022/08/28 07:37:27;;;;;;;;;;;;;;;26.37;55.43;100610.28;5013677;28;1963;-35
2022/08/28 07:40:12;;;;;;;;;;;;;;;26.42;55.78;100616.03;5013461;28;1340;-34
2022/08/28 07:46:05;;;;;;;;;;;;;;;26.43;55.34;100614.22;5013416;28;645;-37
2022/08/28 07:48:52;;;;;;;;;;;;;;;26.47;55.35;100608.47;5013545;28;1224;-36
2022/08/28 07:51:37;;;;;;;;;;;;;;;26.52;54.96;100616.06;5013657;28;666;-36
2022/08/28 07:54:22;;;;;;;;;;;;;;;26.56;55.65;100618.31;5013578;28;1205;-36
2022/08/28 07:57:09;;;;;;;;;;;;;;;26.58;55.41;100619.00;5013308;28;1961;-38
2022/08/28 07:59:54;;;;;;;;;;;;;;;26.55;56.02;100632.66;5012380;28;1235;-37
2022/08/28 08:02:40;;;;;;;;;;;;;;;26.63;55.77;100639.13;5013353;28;978;-37
2022/08/28 08:05:26;;;;;;;;;;;;;;;26.58;56.64;100640.38;5013084;28;1275;-37
2022/08/28 08:08:11;;;;;;;;;;;;;;;26.66;56.19;100639.66;5013485;28;1148;-35
2022/08/28 08:11:07;;;;;;;;;;;;;;;26.70;55.70;100645.56;5013272;28;610;-38
2022/08/28 08:13:55;;;;;;;;;;;;;;;26.77;55.58;100641.38;5013429;28;1233;-35
2022/08/28 08:16:46;;;;;;;;;;;;;;;26.81;55.48;100648.16;5014832;28;677;-36
2022/08/28 08:19:31;;;;;;;;;;;;;;;26.77;55.64;100636.00;5017190;28;1303;-37
2022/08/28 08:22:17;;;;;;;;;;;;;;;26.83;55.75;100641.69;5016992;28;597;-35
2022/08/28 08:25:04;;;;;;;;;;;;;;;26.84;55.97;100647.88;5017405;28;1192;-36
2022/08/28 08:27:49;;;;;;;;;;;;;;;26.91;55.72;100649.81;5016914;28;1030;-35
2022/08/28 08:30:35;;;;;;;;;;;;;;;26.86;56.26;100643.22;5016624;28;1268;-36
2022/08/28 08:33:21;;;;;;;;;;;;;;;26.99;56.38;100649.13;5016782;28;947;-37
2022/08/28 08:36:06;;;;;;;;;;;;;;;26.89;56.95;100656.28;5015939;28;689;-38
2022/08/28 08:38:53;;;;;;;;;;;;;;;27.04;56.76;100650.38;5015455;28;1964;-36
2022/08/28 08:41:49;;;;;;;;;;;;;;;27.11;56.75;100645.31;5016731;28;648;-37
2022/08/28 08:44:40;;;;;;;;;;;;;;;27.02;57.12;100656.84;5016032;28;1294;-36
2022/08/28 08:47:32;;;;;;;;;;;;;;;27.02;57.37;100652.31;5016272;28;637;-36
2022/08/28 08:50:17;;;;;;;;;;;;;;;27.01;57.55;100661.34;5016176;28;1229;-38
2022/08/28 08:53:06;;;;;;;;;;;;;;;27.07;57.78;100657.25;5016297;28;1030;-37
2022/08/28 08:55:53;;;;;;;;;;;;;;;27.07;57.51;100662.59;5016215;28;680;-37
2022/08/28 08:58:43;;;;;;;;;;;;;;;27.11;57.73;100658.66;5016308;28;1975;-37
2022/08/28 09:01:51;;;;;;;;;;;;;;;27.14;57.95;100672.59;5015887;28;881;-36
2022/08/28 09:04:40;;;;;;;;;;;;;;;27.19;58.01;100666.81;5016326;28;2031;-36
2022/08/28 09:07:43;;;;;;;;;;;;;;;27.23;58.28;100668.22;5015846;28;606;-37
2022/08/28 09:10:35;;;;;;;;;;;;;;;27.27;58.44;100660.75;5022125;28;1418;-35
2022/08/28 09:13:25;;;;;;;;;;;;;;;27.32;58.16;100664.66;5026668;28;1060;-42
2022/08/28 09:16:15;;;;;;;;;;;;;;;27.28;58.37;100668.63;5035544;28;602;-43
2022/08/28 09:19:01;;;;;;;;;;;;;;;27.34;58.56;100672.53;5035526;28;1898;-42
2022/08/28 09:21:47;;;;;;;;;;;;;;;27.38;58.38;100669.44;5035629;28;706;-45
2022/08/28 09:24:35;;;;;;;;;;;;;;;27.46;58.16;100669.59;5035639;28;1213;-39
2022/08/28 09:27:25;;;;;;;;;;;;;;;27.49;57.86;100677.31;5033013;28;594;-41
2022/08/28 09:30:11;;;;;;;;;;;;;;;27.61;56.90;100675.31;5035326;28;1314;-36
2022/08/28 09:32:59;;;;;;;;;;;;;;;27.60;57.25;100671.78;5035504;28;1033;-39
2022/08/28 09:35:45;;;;;;;;;;;;;;;27.56;57.15;100669.56;5030231;28;1276;-41
2022/08/28 09:38:30;;;;;;;;;;;;;;;27.54;57.32;100672.34;5029689;28;1906;-43
2022/08/28 09:44:19;;;;;;;;;;;;;;;27.63;57.13;100678.69;5015013;28;1326;-42
2022/08/28 09:47:05;;;;;;;;;;;;;;;27.68;57.39;100671.91;5033363;28;1001;-40
2022/08/28 09:49:51;;;;;;;;;;;;;;;27.67;57.49;100675.56;5034530;28;1323;-42
2022/08/28 09:52:36;;;;;;;;;;;;;;;27.71;57.29;100676.13;5014818;28;610;-44
2022/08/28 09:55:34;;;;;;;;;;;;;;;27.75;57.43;100674.00;5014384;28;1333;-42
2022/08/28 09:58:21;;;;;;;;;;;;;;;27.88;56.83;100677.16;5014760;28;1911;-44
2022/08/28 10:01:13;;;;;;;;;;;;;;;28.05;56.12;100676.41;5014638;28;985;-44
2022/08/28 10:04:18;;;;;;;;;;;;;;;27.93;56.53;100674.91;5014672;28;1217;-42
2022/08/28 10:07:12;;;;;;;;;;;;;;;27.96;56.50;100674.59;5027100;28;1008;-44
2022/08/28 10:10:07;;;;;;;;;;;;;;;27.97;56.88;100671.75;5014619;28;1290;-43
2022/08/28 10:13:07;;;;;;;;;;;;;;;28.06;56.65;100664.69;5014456;28;1135;-44
2022/08/28 10:16:16;;;;;;;;;;;;;;;28.08;56.82;100663.56;5014635;28;676;-45
2022/08/28 10:19:11;;;;;;;;;;;;;;;27.97;57.12;100666.41;5011200;28;1903;-43
2022/08/28 10:22:08;;;;;;;;;;;;;;;28.16;57.17;100670.84;5012070;28;626;-44
2022/08/28 10:25:04;;;;;;;;;;;;;;;27.88;57.48;100666.44;5014511;28;1296;-43
2022/08/28 10:28:14;;;;;;;;;;;;;;;28.37;58.07;100668.72;5012405;28;1090;-43
2022/08/28 10:31:02;;;;;;;;;;;;;;;28.07;58.06;100674.44;5014857;28;598;-44
2022/08/28 10:34:02;;;;;;;;;;;;;;;28.13;59.93;100671.16;5014436;28;1310;-44
2022/08/28 10:36:54;;;;;;;;;;;;;;;28.05;58.88;100658.53;5014193;28;641;-45
2022/08/28 10:40:00;;;;;;;;;;;;;;;28.03;58.92;100665.81;5013682;28;1969;-42
2022/08/28 10:42:54;;;;;;;;;;;;;;;28.24;59.18;100662.06;5014266;28;1139;-44
2022/08/28 10:45:40;;;;;;;;;;;;;;;28.50;59.12;100663.00;5014235;28;1728;-44
2022/08/28 10:48:54;;;;;;;;;;;;;;;28.35;58.43;100662.69;5014095;28;1245;-44
2022/08/28 10:51:45;;;;;;;;;;;;;;;28.31;58.37;100663.13;5015480;28;972;-44
2022/08/28 10:54:33;;;;;;;;;;;;;;;28.36;58.47;100661.69;5013972;28;1295;-43
2022/08/28 10:57:22;;;;;;;;;;;;;;;28.55;57.61;100660.69;5012681;28;617;-44
2022/08/28 11:00:10;;;;;;;;;;;;;;;28.79;57.65;100663.63;5013750;28;1276;-44
2022/08/28 11:03:16;;;;;;;;;;;;;;;28.51;57.50;100664.72;5013865;28;1066;-43
2022/08/28 11:06:25;;;;;;;;;;;;;;;28.57;57.57;100659.59;5013640;28;598;-45
2022/08/28 11:09:24;;;;;;;;;;;;;;;28.76;58.28;100661.28;5013848;28;1225;-43
2022/08/28 11:12:15;;;;;;;;;;;;;;;28.61;58.23;100660.94;5013518;28;1125;-44
2022/08/28 11:15:20;;;;;;;;;;;;;;;28.31;58.57;100658.63;5013972;28;1229;-43
2022/08/28 11:18:15;;;;;;;;;;;;;;;28.51;58.56;100656.66;5013252;28;1907;-43
2022/08/28 11:21:19;;;;;;;;;;;;;;;28.46;58.29;100659.78;5013394;28;626;-43
2022/08/28 11:24:08;;;;;;;;;;;;;;;28.27;58.55;100651.88;5013306;28;1320;-43
2022/08/28 11:27:09;;;;;;;;;;;;;;;28.61;58.04;100660.09;5013725;28;685;-45
2022/08/28 11:29:57;;;;;;;;;;;;;;;28.72;58.10;100658.09;5013694;28;1253;-44
2022/08/28 11:32:48;;;;;;;;;;;;;;;28.60;57.84;100653.91;5013168;28;1052;-45
2022/08/28 11:35:42;;;;;;;;;;;;;;;28.47;58.48;100666.84;5012457;28;1223;-43
2022/08/28 11:38:40;;;;;;;;;;;;;;;29.08;57.19;100660.69;5013518;28;1960;-44
2022/08/28 11:41:30;;;;;;;;;;;;;;;28.51;58.05;100660.19;5013178;28;565;-43
2022/08/28 11:44:16;;;;;;;;;;;;;;;28.77;57.98;100664.78;5012896;28;1380;-43
2022/08/28 11:47:20;;;;;;;;;;;;;;;28.58;58.50;100661.25;5013356;28;618;-44
2022/08/28 11:50:15;;;;;;;;;;;;;;;28.65;58.03;100662.38;5014160;28;1258;-44
2022/08/28 11:53:09;;;;;;;;;;;;;;;28.74;58.01;100666.81;5017336;28;944;-44
2022/08/28 11:56:04;;;;;;;;;;;;;;;28.92;57.71;100664.09;5017247;28;695;-44
2022/08/28 11:59:05;;;;;;;;;;;;;;;29.07;58.01;100667.06;5016940;28;1898;-43
2022/08/28 12:02:14;;;;;;;;;;;;;;;28.90;58.40;100659.88;5016953;28;705;-45
2022/08/28 12:05:01;;;;;;;;;;;;;;;29.02;57.78;100661.31;5017434;28;1253;-43
2022/08/28 12:07:48;;;;;;;;;;;;;;;29.05;57.32;100667.22;5016953;28;1059;-44
2022/08/28 12:10:33;;;;;;;;;;;;;;;29.17;57.34;100667.81;5016846;28;1273;-44
2022/08/28 12:13:37;;;;;;;;;;;;;;;28.98;58.07;100658.13;5017144;28;1073;-44
2022/08/28 12:16:23;;;;;;;;;;;;;;;28.99;58.39;100664.31;5016942;28;606;-44
2022/08/28 12:19:09;;;;;;;;;;;;;;;28.93;58.10;100667.63;5015363;28;1975;-44
2022/08/28 12:21:55;;;;;;;;;;;;;;;28.95;58.23;100670.97;5016837;28;684;-44
2022/08/28 12:24:46;;;;;;;;;;;;;;;28.85;58.22;100667.56;5016795;28;1244;-44
2022/08/28 12:27:35;;;;;;;;;;;;;;;28.91;58.65;100669.63;5016317;28;759;-45
2022/08/28 12:30:41;;;;;;;;;;;;;;;28.94;58.47;100661.28;5016079;28;1255;-44
2022/08/28 12:33:35;;;;;;;;;;;;;;;28.95;59.07;100668.31;5016399;28;1262;-45
2022/08/28 12:36:25;;;;;;;;;;;;;;;29.10;58.36;100666.75;5016350;28;617;-44
2022/08/28 12:39:17;;;;;;;;;;;;;;;29.07;58.33;100667.91;5016278;28;1903;-44
2022/08/28 12:42:02;;;;;;;;;;;;;;;28.97;58.26;100660.97;5028534;28;1499;-41
2022/08/28 12:44:47;;;;;;;;;;;;;;;29.11;57.87;100668.44;5033449;28;1329;-41
2022/08/28 12:47:34;;;;;;;;;;;;;;;29.13;57.53;100666.44;5034533;28;969;-40
2022/08/28 12:50:24;;;;;;;;;;;;;;;29.25;56.99;100654.47;5035366;28;1269;-37
2022/08/28 12:53:12;;;;;;;;;;;;;;;29.19;56.92;100663.97;5035108;28;1123;-36
2022/08/28 12:55:57;;;;;;;;;;;;;;;29.08;57.71;100658.03;5029849;28;881;-38
2022/08/28 12:58:44;;;;;;;;;;;;;;;29.08;57.20;100658.03;5027967;28;1906;-39
2022/08/28 13:01:31;;;;;;;;;;;;;;;29.44;55.27;100642.69;5029127;28;873;-33
2022/08/28 13:04:28;;;;;;;;;;;;;;;29.24;56.62;100647.44;5035331;28;1209;-35
2022/08/28 13:07:17;;;;;;;;;;;;;;;29.24;56.67;100658.19;5028085;28;845;-39
2022/08/28 13:10:19;;;;;;;;;;;;;;;29.32;56.12;100639.44;5033740;28;1296;-37
2022/08/28 13:13:07;;;;;;;;;;;;;;;29.27;55.63;100644.44;5033109;28;1260;-38
2022/08/28 13:15:53;;;;;;;;;;;;;;;29.84;53.40;100642.09;5026464;28;912;-38
2022/08/28 13:18:44;;;;;;;;;;;;;;;29.99;53.24;100638.63;5034930;28;1910;-38
2022/08/28 13:21:36;;;;;;;;;;;;;;;29.93;53.19;100641.13;5032462;28;972;-39
2022/08/28 13:24:21;;;;;;;;;;;;;;;30.07;52.45;100643.16;5026279;28;1463;-41
2022/08/28 13:27:15;;;;;;;;;;;;;;;30.09;52.16;100646.53;5032234;28;874;-38
2022/08/28 13:30:21;;;;;;;;;;;;;;;30.12;51.85;100636.31;5035060;28;1244;-38
2022/08/28 13:33:21;;;;;;;;;;;;;;;30.05;52.17;100642.50;5029979;28;1090;-37
2022/08/28 13:36:20;;;;;;;;;;;;;;;30.06;52.18;100638.81;5033926;28;929;-42
2022/08/28 13:39:06;;;;;;;;;;;;;;;30.04;52.29;100640.81;5034660;28;1971;-39
2022/08/28 13:41:58;;;;;;;;;;;;;;;30.06;51.31;100645.03;5034312;28;921;-40
2022/08/28 13:44:54;;;;;;;;;;;;;;;30.02;51.18;100654.41;5029786;28;1447;-38
2022/08/28 13:47:40;;;;;;;;;;;;;;;30.04;50.74;100651.53;5027044;28;1419;-44
2022/08/28 13:50:26;;;;;;;;;;;;;;;29.93;50.53;100638.44;5022600;28;1241;-45
2022/08/28 13:53:12;;;;;;;;;;;;;;;29.93;51.48;100641.13;5032566;28;1132;-46
2022/08/28 13:55:59;;;;;;;;;;;;;;;30.01;50.98;100636.59;5029575;28;866;-46
2022/08/28 13:58:44;;;;;;;;;;;;;;;29.98;50.33;100628.03;5030696;28;1984;-46
2022/08/28 14:04:46;;;;;;;;;;;;;;;29.94;51.20;100626.69;5033182;28;1288;-49
2022/08/28 14:07:31;;;;;;;;;;;;;;;29.90;50.96;100633.38;5025260;28;1354;-40
2022/08/28 14:10:16;;;;;;;;;;;;;;;29.97;50.99;100626.38;5032405;28;1371;-41
2022/08/28 14:13:01;;;;;;;;;;;;;;;30.08;50.64;100634.13;5031087;28;1016;-37
2022/08/28 14:15:47;;;;;;;;;;;;;;;30.11;51.11;100629.25;5025154;28;1301;-41
2022/08/28 14:18:33;;;;;;;;;;;;;;;30.06;51.28;100636.13;5032965;28;1977;-40
2022/08/28 14:21:19;;;;;;;;;;;;;;;30.20;50.62;100632.78;5030393;28;874;-42
2022/08/28 14:24:05;;;;;;;;;;;;;;;30.06;50.33;100623.53;5027280;28;1397;-41
2022/08/28 14:26:51;;;;;;;;;;;;;;;30.17;51.30;100622.38;5031738;28;959;-40
2022/08/28 14:29:37;;;;;;;;;;;;;;;30.20;51.81;100620.22;5032281;28;1274;-40
2022/08/28 14:32:22;;;;;;;;;;;;;;;30.25;52.28;100619.69;5031705;28;1043;-38
2022/08/28 14:35:08;;;;;;;;;;;;;;;30.01;53.62;100630.38;5032387;28;1381;-36
2022/08/28 14:37:53;;;;;;;;;;;;;;;29.99;54.02;100622.50;5027128;28;1089;-36
2022/08/28 14:40:40;;;;;;;;;;;;;;;30.06;54.21;100626.22;5030947;28;1961;-37
2022/08/28 14:43:25;;;;;;;;;;;;;;;29.91;54.45;100637.75;5031069;28;1281;-38
2022/08/28 14:46:18;;;;;;;;;;;;;;;29.59;55.72;100625.84;5021318;28;861;-36
2022/08/28 14:49:05;;;;;;;;;;;;;;;29.52;57.16;100630.16;5032795;28;1337;-39
2022/08/28 14:51:52;;;;;;;;;;;;;;;29.45;58.13;100634.50;5022026;28;893;-38
2022/08/28 14:54:39;;;;;;;;;;;;;;;29.32;58.95;100628.72;5030996;28;1217;-39